sensor_id;sensor_type;location;lat;lon;timestamp;P1;durP1;ratioP1;P2;durP2;ratioP2
49444;SDS011;35323;43.080;-81.378;2023-03-23T00:02:25;20.33;;;13.30;;
49444;SDS011;35323;43.080;-81.378;2023-03-23T00:04:51;18.33;;;13.48;;
49444;SDS011;35323;43.080;-81.378;2023-03-23T00:07:22;21.17;;;12.82;;
49444;SDS011;35323;43.080;-81.378;2023-03-23T00:09:48;17.90;;;12.75;;
49444;SDS011;35323;43.080;-81.378;2023-03-23T00:12:20;16.95;;;13.55;;
49444;SDS011;35323;43.080;-81.378;2023-03-23T00:14:47;19.92;;;12.70;;
49444;SDS011;35323;43.080;-81.378;2023-03-23T00:17:13;16.95;;;13.35;;
49444;SDS011;35323;43.080;-81.378;2023-03-23T00:19:40;16.20;;;11.80;;
49444;SDS011;35323;43.080;-81.378;2023-03-23T00:22:12;15.38;;;11.60;;
49444;SDS011;35323;43.080;-81.378;2023-03-23T00:24:38;17.30;;;14.70;;
49444;SDS011;35323;43.080;-81.378;2023-03-23T00:27:04;20.67;;;15.10;;
49444;SDS011;35323;43.080;-81.378;2023-03-23T00:29:30;23.88;;;12.98;;
49444;SDS011;35323;43.080;-81.378;2023-03-23T00:31:57;18.38;;;12.75;;
49444;SDS011;35323;43.080;-81.378;2023-03-23T00:34:24;18.80;;;13.38;;
49444;SDS011;35323;43.080;-81.378;2023-03-23T00:36:51;22.00;;;14.73;;
49444;SDS011;35323;43.080;-81.378;2023-03-23T00:39:19;16.92;;;12.27;;
49444;SDS011;35323;43.080;-81.378;2023-03-23T00:41:46;20.40;;;13.43;;
49444;SDS011;35323;43.080;-81.378;2023-03-23T00:44:15;20.88;;;12.18;;
49444;SDS011;35323;43.080;-81.378;2023-03-23T00:46:43;16.67;;;13.30;;
49444;SDS011;35323;43.080;-81.378;2023-03-23T00:49:14;20.42;;;12.85;;
49444;SDS011;35323;43.080;-81.378;2023-03-23T00:51:40;21.30;;;12.88;;
49444;SDS011;35323;43.080;-81.378;2023-03-23T00:54:07;18.52;;;11.93;;
49444;SDS011;35323;43.080;-81.378;2023-03-23T00:56:33;19.23;;;13.77;;
49444;SDS011;35323;43.080;-81.378;2023-03-23T00:58:59;18.40;;;14.73;;
49444;SDS011;35323;43.080;-81.378;2023-03-23T01:01:25;26.08;;;13.13;;
49444;SDS011;35323;43.080;-81.378;2023-03-23T01:03:51;17.08;;;12.52;;
49444;SDS011;35323;43.080;-81.378;2023-03-23T01:06:29;19.25;;;13.73;;
49444;SDS011;35323;43.080;-81.378;2023-03-23T01:08:56;19.40;;;12.95;;
49444;SDS011;35323;43.080;-81.378;2023-03-23T01:11:23;17.00;;;12.75;;
49444;SDS011;35323;43.080;-81.378;2023-03-23T01:13:50;18.02;;;11.45;;
49444;SDS011;35323;43.080;-81.378;2023-03-23T01:16:16;21.27;;;15.85;;
49444;SDS011;35323;43.080;-81.378;2023-03-23T01:18:42;17.48;;;12.65;;
49444;SDS011;35323;43.080;-81.378;2023-03-23T01:21:12;14.07;;;10.60;;
49444;SDS011;35323;43.080;-81.378;2023-03-23T01:23:40;16.92;;;12.05;;
49444;SDS011;35323;43.080;-81.378;2023-03-23T01:26:07;20.15;;;14.38;;
49444;SDS011;35323;43.080;-81.378;2023-03-23T01:28:34;18.05;;;13.13;;
49444;SDS011;35323;43.080;-81.378;2023-03-23T01:31:01;23.02;;;14.75;;
49444;SDS011;35323;43.080;-81.378;2023-03-23T01:33:27;14.98;;;12.10;;
49444;SDS011;35323;43.080;-81.378;2023-03-23T01:35:53;14.90;;;10.98;;
49444;SDS011;35323;43.080;-81.378;2023-03-23T01:38:19;19.38;;;13.43;;
49444;SDS011;35323;43.080;-81.378;2023-03-23T01:40:46;14.23;;;11.98;;
49444;SDS011;35323;43.080;-81.378;2023-03-23T01:43:13;16.35;;;12.70;;
49444;SDS011;35323;43.080;-81.378;2023-03-23T01:45:40;15.30;;;12.15;;
49444;SDS011;35323;43.080;-81.378;2023-03-23T01:48:09;17.63;;;13.77;;
49444;SDS011;35323;43.080;-81.378;2023-03-23T01:50:37;28.02;;;15.20;;
49444;SDS011;35323;43.080;-81.378;2023-03-23T01:53:07;22.05;;;13.38;;
49444;SDS011;35323;43.080;-81.378;2023-03-23T01:55:34;14.23;;;12.60;;
49444;SDS011;35323;43.080;-81.378;2023-03-23T01:58:02;15.85;;;14.13;;
49444;SDS011;35323;43.080;-81.378;2023-03-23T02:00:28;20.85;;;13.63;;
49444;SDS011;35323;43.080;-81.378;2023-03-23T02:02:55;17.67;;;13.13;;
49444;SDS011;35323;43.080;-81.378;2023-03-23T02:05:32;17.83;;;12.05;;
49444;SDS011;35323;43.080;-81.378;2023-03-23T02:07:59;19.08;;;12.20;;
49444;SDS011;35323;43.080;-81.378;2023-03-23T02:10:29;18.77;;;13.63;;
49444;SDS011;35323;43.080;-81.378;2023-03-23T02:12:55;19.70;;;13.18;;
49444;SDS011;35323;43.080;-81.378;2023-03-23T02:15:21;25.02;;;14.48;;
49444;SDS011;35323;43.080;-81.378;2023-03-23T02:18:04;17.92;;;13.23;;
49444;SDS011;35323;43.080;-81.378;2023-03-23T02:20:47;20.48;;;13.43;;
49444;SDS011;35323;43.080;-81.378;2023-03-23T02:28:31;14.55;;;12.95;;
49444;SDS011;35323;43.080;-81.378;2023-03-23T02:38:46;19.48;;;13.25;;
49444;SDS011;35323;43.080;-81.378;2023-03-23T02:41:18;19.67;;;12.70;;
49444;SDS011;35323;43.080;-81.378;2023-03-23T02:43:45;22.63;;;14.40;;
49444;SDS011;35323;43.080;-81.378;2023-03-23T02:46:12;17.52;;;12.82;;
49444;SDS011;35323;43.080;-81.378;2023-03-23T02:48:40;21.90;;;13.75;;
49444;SDS011;35323;43.080;-81.378;2023-03-23T02:51:07;21.00;;;15.60;;
49444;SDS011;35323;43.080;-81.378;2023-03-23T02:53:34;18.20;;;12.68;;
49444;SDS011;35323;43.080;-81.378;2023-03-23T02:56:02;22.85;;;15.13;;
49444;SDS011;35323;43.080;-81.378;2023-03-23T02:58:30;17.63;;;12.07;;
49444;SDS011;35323;43.080;-81.378;2023-03-23T03:00:56;17.20;;;14.52;;
49444;SDS011;35323;43.080;-81.378;2023-03-23T03:03:26;13.73;;;11.43;;
49444;SDS011;35323;43.080;-81.378;2023-03-23T03:05:56;14.13;;;12.63;;
49444;SDS011;35323;43.080;-81.378;2023-03-23T03:08:35;16.92;;;11.82;;
49444;SDS011;35323;43.080;-81.378;2023-03-23T03:11:06;13.40;;;11.68;;
49444;SDS011;35323;43.080;-81.378;2023-03-23T03:21:00;11.40;;;9.47;;
49444;SDS011;35323;43.080;-81.378;2023-03-23T03:23:28;13.73;;;9.60;;
49444;SDS011;35323;43.080;-81.378;2023-03-23T03:25:55;12.98;;;9.50;;
49444;SDS011;35323;43.080;-81.378;2023-03-23T03:28:23;11.15;;;8.95;;
49444;SDS011;35323;43.080;-81.378;2023-03-23T03:30:54;13.30;;;9.63;;
49444;SDS011;35323;43.080;-81.378;2023-03-23T03:33:21;14.38;;;9.57;;
49444;SDS011;35323;43.080;-81.378;2023-03-23T03:35:51;11.98;;;9.68;;
49444;SDS011;35323;43.080;-81.378;2023-03-23T03:38:18;15.45;;;8.35;;
49444;SDS011;35323;43.080;-81.378;2023-03-23T03:40:45;11.77;;;9.45;;
49444;SDS011;35323;43.080;-81.378;2023-03-23T03:43:11;9.73;;;7.70;;
49444;SDS011;35323;43.080;-81.378;2023-03-23T03:45:37;10.45;;;7.47;;
49444;SDS011;35323;43.080;-81.378;2023-03-23T03:48:03;10.48;;;7.07;;
49444;SDS011;35323;43.080;-81.378;2023-03-23T03:50:29;10.75;;;7.82;;
49444;SDS011;35323;43.080;-81.378;2023-03-23T03:52:56;9.45;;;7.55;;
49444;SDS011;35323;43.080;-81.378;2023-03-23T03:55:24;9.48;;;7.28;;
49444;SDS011;35323;43.080;-81.378;2023-03-23T03:57:54;12.20;;;7.68;;
49444;SDS011;35323;43.080;-81.378;2023-03-23T04:00:20;7.90;;;6.88;;
49444;SDS011;35323;43.080;-81.378;2023-03-23T04:02:49;8.63;;;7.25;;
49444;SDS011;35323;43.080;-81.378;2023-03-23T04:05:19;9.20;;;6.40;;
49444;SDS011;35323;43.080;-81.378;2023-03-23T04:07:46;9.43;;;6.20;;
49444;SDS011;35323;43.080;-81.378;2023-03-23T04:10:14;8.82;;;7.43;;
49444;SDS011;35323;43.080;-81.378;2023-03-23T04:12:41;6.80;;;5.60;;
49444;SDS011;35323;43.080;-81.378;2023-03-23T04:15:07;6.60;;;6.00;;
49444;SDS011;35323;43.080;-81.378;2023-03-23T04:17:34;8.50;;;5.03;;
49444;SDS011;35323;43.080;-81.378;2023-03-23T04:20:00;7.00;;;6.30;;
49444;SDS011;35323;43.080;-81.378;2023-03-23T04:22:27;7.40;;;5.93;;
49444;SDS011;35323;43.080;-81.378;2023-03-23T04:24:56;6.40;;;5.72;;
49444;SDS011;35323;43.080;-81.378;2023-03-23T04:27:24;8.55;;;6.05;;
49444;SDS011;35323;43.080;-81.378;2023-03-23T04:29:50;7.20;;;5.78;;
49444;SDS011;35323;43.080;-81.378;2023-03-23T04:32:16;6.75;;;4.78;;
49444;SDS011;35323;43.080;-81.378;2023-03-23T04:34:45;5.47;;;4.97;;
49444;SDS011;35323;43.080;-81.378;2023-03-23T04:37:11;7.13;;;5.43;;
49444;SDS011;35323;43.080;-81.378;2023-03-23T04:39:39;6.47;;;5.90;;
49444;SDS011;35323;43.080;-81.378;2023-03-23T04:42:05;6.88;;;6.13;;
49444;SDS011;35323;43.080;-81.378;2023-03-23T04:44:31;5.00;;;4.55;;
49444;SDS011;35323;43.080;-81.378;2023-03-23T04:47:00;8.05;;;4.82;;
49444;SDS011;35323;43.080;-81.378;2023-03-23T04:49:26;6.43;;;5.55;;
49444;SDS011;35323;43.080;-81.378;2023-03-23T04:51:55;7.57;;;5.28;;
49444;SDS011;35323;43.080;-81.378;2023-03-23T04:54:22;5.38;;;4.88;;
49444;SDS011;35323;43.080;-81.378;2023-03-23T04:56:48;7.35;;;6.18;;
49444;SDS011;35323;43.080;-81.378;2023-03-23T04:59:14;5.45;;;4.78;;
49444;SDS011;35323;43.080;-81.378;2023-03-23T05:01:43;6.43;;;5.00;;
49444;SDS011;35323;43.080;-81.378;2023-03-23T05:04:11;5.28;;;4.57;;
49444;SDS011;35323;43.080;-81.378;2023-03-23T05:06:42;6.50;;;5.47;;
49444;SDS011;35323;43.080;-81.378;2023-03-23T05:09:11;7.45;;;4.97;;
49444;SDS011;35323;43.080;-81.378;2023-03-23T05:11:37;8.32;;;5.75;;
49444;SDS011;35323;43.080;-81.378;2023-03-23T05:14:04;8.05;;;5.72;;
49444;SDS011;35323;43.080;-81.378;2023-03-23T05:16:30;7.88;;;5.47;;
49444;SDS011;35323;43.080;-81.378;2023-03-23T05:18:56;7.63;;;5.35;;
49444;SDS011;35323;43.080;-81.378;2023-03-23T05:21:25;8.93;;;7.18;;
49444;SDS011;35323;43.080;-81.378;2023-03-23T05:23:51;7.50;;;6.60;;
49444;SDS011;35323;43.080;-81.378;2023-03-23T05:26:20;7.80;;;6.65;;
49444;SDS011;35323;43.080;-81.378;2023-03-23T05:28:47;13.07;;;8.95;;
49444;SDS011;35323;43.080;-81.378;2023-03-23T05:31:14;11.02;;;7.22;;
49444;SDS011;35323;43.080;-81.378;2023-03-23T05:33:40;10.98;;;7.38;;
49444;SDS011;35323;43.080;-81.378;2023-03-23T05:36:06;8.75;;;7.80;;
49444;SDS011;35323;43.080;-81.378;2023-03-23T05:38:33;13.73;;;8.02;;
49444;SDS011;35323;43.080;-81.378;2023-03-23T05:40:59;15.38;;;10.65;;
49444;SDS011;35323;43.080;-81.378;2023-03-23T05:43:26;8.23;;;6.80;;
49444;SDS011;35323;43.080;-81.378;2023-03-23T05:45:53;12.95;;;9.10;;
49444;SDS011;35323;43.080;-81.378;2023-03-23T05:48:19;18.52;;;10.55;;
49444;SDS011;35323;43.080;-81.378;2023-03-23T05:50:45;11.65;;;7.85;;
49444;SDS011;35323;43.080;-81.378;2023-03-23T05:53:12;10.75;;;9.10;;
49444;SDS011;35323;43.080;-81.378;2023-03-23T05:55:38;12.77;;;9.40;;
49444;SDS011;35323;43.080;-81.378;2023-03-23T05:58:05;15.63;;;9.77;;
49444;SDS011;35323;43.080;-81.378;2023-03-23T06:00:31;9.68;;;8.02;;
49444;SDS011;35323;43.080;-81.378;2023-03-23T06:03:00;14.25;;;8.10;;
49444;SDS011;35323;43.080;-81.378;2023-03-23T06:05:26;17.08;;;10.27;;
49444;SDS011;35323;43.080;-81.378;2023-03-23T06:07:52;14.30;;;9.95;;
49444;SDS011;35323;43.080;-81.378;2023-03-23T06:10:19;9.77;;;7.68;;
49444;SDS011;35323;43.080;-81.378;2023-03-23T06:12:45;10.45;;;8.30;;
49444;SDS011;35323;43.080;-81.378;2023-03-23T06:15:11;14.00;;;8.52;;
49444;SDS011;35323;43.080;-81.378;2023-03-23T06:17:38;13.25;;;10.25;;
49444;SDS011;35323;43.080;-81.378;2023-03-23T06:20:04;15.85;;;9.05;;
49444;SDS011;35323;43.080;-81.378;2023-03-23T06:22:36;14.52;;;9.80;;
49444;SDS011;35323;43.080;-81.378;2023-03-23T06:25:06;15.13;;;10.48;;
49444;SDS011;35323;43.080;-81.378;2023-03-23T06:27:33;13.02;;;9.18;;
49444;SDS011;35323;43.080;-81.378;2023-03-23T06:29:59;11.23;;;9.13;;
49444;SDS011;35323;43.080;-81.378;2023-03-23T06:32:25;15.23;;;10.82;;
49444;SDS011;35323;43.080;-81.378;2023-03-23T06:34:53;11.13;;;8.07;;
49444;SDS011;35323;43.080;-81.378;2023-03-23T06:37:20;14.60;;;10.25;;
49444;SDS011;35323;43.080;-81.378;2023-03-23T06:39:46;9.00;;;8.07;;
49444;SDS011;35323;43.080;-81.378;2023-03-23T06:42:12;10.77;;;7.72;;
49444;SDS011;35323;43.080;-81.378;2023-03-23T06:44:38;7.90;;;6.63;;
49444;SDS011;35323;43.080;-81.378;2023-03-23T06:47:04;7.63;;;5.47;;
49444;SDS011;35323;43.080;-81.378;2023-03-23T06:49:30;7.90;;;5.55;;
49444;SDS011;35323;43.080;-81.378;2023-03-23T06:51:57;9.77;;;6.05;;
49444;SDS011;35323;43.080;-81.378;2023-03-23T06:54:25;8.38;;;6.13;;
49444;SDS011;35323;43.080;-81.378;2023-03-23T06:56:51;7.03;;;5.85;;
49444;SDS011;35323;43.080;-81.378;2023-03-23T06:59:17;7.93;;;5.57;;
49444;SDS011;35323;43.080;-81.378;2023-03-23T07:01:43;6.85;;;5.18;;
49444;SDS011;35323;43.080;-81.378;2023-03-23T07:04:10;6.63;;;4.50;;
49444;SDS011;35323;43.080;-81.378;2023-03-23T07:06:36;8.13;;;5.15;;
49444;SDS011;35323;43.080;-81.378;2023-03-23T07:09:03;6.55;;;5.03;;
49444;SDS011;35323;43.080;-81.378;2023-03-23T07:11:29;5.28;;;4.40;;
49444;SDS011;35323;43.080;-81.378;2023-03-23T07:13:55;6.70;;;4.53;;
49444;SDS011;35323;43.080;-81.378;2023-03-23T07:16:21;8.75;;;5.35;;
49444;SDS011;35323;43.080;-81.378;2023-03-23T07:18:50;7.05;;;5.05;;
49444;SDS011;35323;43.080;-81.378;2023-03-23T07:21:16;10.27;;;6.38;;
49444;SDS011;35323;43.080;-81.378;2023-03-23T07:23:42;7.75;;;5.03;;
49444;SDS011;35323;43.080;-81.378;2023-03-23T07:26:11;8.85;;;5.20;;
49444;SDS011;35323;43.080;-81.378;2023-03-23T07:28:37;7.50;;;6.75;;
49444;SDS011;35323;43.080;-81.378;2023-03-23T07:31:03;9.18;;;7.30;;
49444;SDS011;35323;43.080;-81.378;2023-03-23T07:33:29;7.35;;;5.90;;
49444;SDS011;35323;43.080;-81.378;2023-03-23T07:35:58;6.97;;;5.07;;
49444;SDS011;35323;43.080;-81.378;2023-03-23T07:38:24;7.00;;;5.43;;
49444;SDS011;35323;43.080;-81.378;2023-03-23T07:40:53;7.20;;;6.22;;
49444;SDS011;35323;43.080;-81.378;2023-03-23T07:43:19;6.38;;;4.82;;
49444;SDS011;35323;43.080;-81.378;2023-03-23T07:45:46;7.28;;;6.20;;
49444;SDS011;35323;43.080;-81.378;2023-03-23T07:48:12;6.88;;;6.07;;
49444;SDS011;35323;43.080;-81.378;2023-03-23T07:50:39;8.55;;;6.40;;
49444;SDS011;35323;43.080;-81.378;2023-03-23T07:53:08;8.32;;;5.63;;
49444;SDS011;35323;43.080;-81.378;2023-03-23T07:55:34;6.60;;;5.60;;
49444;SDS011;35323;43.080;-81.378;2023-03-23T07:58:00;10.20;;;6.18;;
49444;SDS011;35323;43.080;-81.378;2023-03-23T08:00:26;7.82;;;6.05;;
49444;SDS011;35323;43.080;-81.378;2023-03-23T08:02:56;9.73;;;7.43;;
49444;SDS011;35323;43.080;-81.378;2023-03-23T08:05:24;11.43;;;7.70;;
49444;SDS011;35323;43.080;-81.378;2023-03-23T08:07:52;12.82;;;7.45;;
49444;SDS011;35323;43.080;-81.378;2023-03-23T08:10:20;8.15;;;6.03;;
49444;SDS011;35323;43.080;-81.378;2023-03-23T08:12:50;10.50;;;6.70;;
49444;SDS011;35323;43.080;-81.378;2023-03-23T08:15:17;11.32;;;8.45;;
49444;SDS011;35323;43.080;-81.378;2023-03-23T08:17:43;9.15;;;6.88;;
49444;SDS011;35323;43.080;-81.378;2023-03-23T08:20:12;14.30;;;7.93;;
49444;SDS011;35323;43.080;-81.378;2023-03-23T08:22:43;25.50;;;11.88;;
49444;SDS011;35323;43.080;-81.378;2023-03-23T08:25:11;12.95;;;7.47;;
49444;SDS011;35323;43.080;-81.378;2023-03-23T08:27:38;18.35;;;8.75;;
49444;SDS011;35323;43.080;-81.378;2023-03-23T08:30:09;12.48;;;7.38;;
49444;SDS011;35323;43.080;-81.378;2023-03-23T08:32:36;13.13;;;7.97;;
49444;SDS011;35323;43.080;-81.378;2023-03-23T08:35:02;27.60;;;12.70;;
49444;SDS011;35323;43.080;-81.378;2023-03-23T08:37:29;22.58;;;10.10;;
49444;SDS011;35323;43.080;-81.378;2023-03-23T08:39:55;29.17;;;13.88;;
49444;SDS011;35323;43.080;-81.378;2023-03-23T08:42:23;27.33;;;12.27;;
49444;SDS011;35323;43.080;-81.378;2023-03-23T08:44:50;32.72;;;11.75;;
49444;SDS011;35323;43.080;-81.378;2023-03-23T08:47:16;16.85;;;8.15;;
49444;SDS011;35323;43.080;-81.378;2023-03-23T08:49:43;20.27;;;9.32;;
49444;SDS011;35323;43.080;-81.378;2023-03-23T08:52:10;16.83;;;9.50;;
49444;SDS011;35323;43.080;-81.378;2023-03-23T08:54:36;38.95;;;13.43;;
49444;SDS011;35323;43.080;-81.378;2023-03-23T08:57:03;21.67;;;11.18;;
49444;SDS011;35323;43.080;-81.378;2023-03-23T08:59:30;16.10;;;10.70;;
49444;SDS011;35323;43.080;-81.378;2023-03-23T09:01:56;14.90;;;10.10;;
49444;SDS011;35323;43.080;-81.378;2023-03-23T09:04:22;16.85;;;9.32;;
49444;SDS011;35323;43.080;-81.378;2023-03-23T09:06:48;22.23;;;10.63;;
49444;SDS011;35323;43.080;-81.378;2023-03-23T09:09:15;11.80;;;8.65;;
49444;SDS011;35323;43.080;-81.378;2023-03-23T09:11:41;45.25;;;19.45;;
49444;SDS011;35323;43.080;-81.378;2023-03-23T09:14:07;30.55;;;12.70;;
49444;SDS011;35323;43.080;-81.378;2023-03-23T09:16:33;14.25;;;10.02;;
49444;SDS011;35323;43.080;-81.378;2023-03-23T09:19:00;27.98;;;12.90;;
49444;SDS011;35323;43.080;-81.378;2023-03-23T09:21:26;20.25;;;9.35;;
49444;SDS011;35323;43.080;-81.378;2023-03-23T09:23:53;22.20;;;11.88;;
49444;SDS011;35323;43.080;-81.378;2023-03-23T09:26:24;16.83;;;8.52;;
49444;SDS011;35323;43.080;-81.378;2023-03-23T09:28:50;15.60;;;8.07;;
49444;SDS011;35323;43.080;-81.378;2023-03-23T09:31:17;11.68;;;7.53;;
49444;SDS011;35323;43.080;-81.378;2023-03-23T09:33:46;11.55;;;7.22;;
49444;SDS011;35323;43.080;-81.378;2023-03-23T09:36:12;22.08;;;10.45;;
49444;SDS011;35323;43.080;-81.378;2023-03-23T09:38:40;20.58;;;9.90;;
49444;SDS011;35323;43.080;-81.378;2023-03-23T09:48:53;12.25;;;9.27;;
49444;SDS011;35323;43.080;-81.378;2023-03-23T09:53:56;10.30;;;8.18;;
49444;SDS011;35323;43.080;-81.378;2023-03-23T09:56:24;11.27;;;8.35;;
49444;SDS011;35323;43.080;-81.378;2023-03-23T10:01:26;16.70;;;8.80;;
49444;SDS011;35323;43.080;-81.378;2023-03-23T10:03:56;18.73;;;9.95;;
49444;SDS011;35323;43.080;-81.378;2023-03-23T10:06:25;9.45;;;6.47;;
49444;SDS011;35323;43.080;-81.378;2023-03-23T10:08:55;15.93;;;8.73;;
49444;SDS011;35323;43.080;-81.378;2023-03-23T10:16:21;13.18;;;9.10;;
49444;SDS011;35323;43.080;-81.378;2023-03-23T10:18:54;10.25;;;7.88;;
49444;SDS011;35323;43.080;-81.378;2023-03-23T10:21:23;11.93;;;7.60;;
49444;SDS011;35323;43.080;-81.378;2023-03-23T10:23:54;10.63;;;7.35;;
49444;SDS011;35323;43.080;-81.378;2023-03-23T10:29:07;5.70;;;4.87;;
49444;SDS011;35323;43.080;-81.378;2023-03-23T10:31:40;9.65;;;5.35;;
49444;SDS011;35323;43.080;-81.378;2023-03-23T10:39:18;8.35;;;5.03;;
49444;SDS011;35323;43.080;-81.378;2023-03-23T10:41:45;7.38;;;4.93;;
49444;SDS011;35323;43.080;-81.378;2023-03-23T10:44:17;7.85;;;5.90;;
49444;SDS011;35323;43.080;-81.378;2023-03-23T10:47:03;8.35;;;6.68;;
49444;SDS011;35323;43.080;-81.378;2023-03-23T10:52:02;10.20;;;7.78;;
49444;SDS011;35323;43.080;-81.378;2023-03-23T10:54:45;9.25;;;6.70;;
49444;SDS011;35323;43.080;-81.378;2023-03-23T10:57:22;15.73;;;8.90;;
49444;SDS011;35323;43.080;-81.378;2023-03-23T10:59:50;12.48;;;8.07;;
49444;SDS011;35323;43.080;-81.378;2023-03-23T11:02:17;17.33;;;9.80;;
49444;SDS011;35323;43.080;-81.378;2023-03-23T11:05:03;15.70;;;10.40;;
49444;SDS011;35323;43.080;-81.378;2023-03-23T11:07:32;13.90;;;10.25;;
49444;SDS011;35323;43.080;-81.378;2023-03-23T11:12:45;18.50;;;11.18;;
49444;SDS011;35323;43.080;-81.378;2023-03-23T11:15:22;20.75;;;11.55;;
49444;SDS011;35323;43.080;-81.378;2023-03-23T11:20:45;43.20;;;21.80;;
49444;SDS011;35323;43.080;-81.378;2023-03-23T11:26:22;25.70;;;12.30;;
49444;SDS011;35323;43.080;-81.378;2023-03-23T11:28:57;19.67;;;11.38;;
49444;SDS011;35323;43.080;-81.378;2023-03-23T11:31:34;37.03;;;18.52;;
49444;SDS011;35323;43.080;-81.378;2023-03-23T11:36:32;38.10;;;15.88;;
49444;SDS011;35323;43.080;-81.378;2023-03-23T11:38:58;32.10;;;15.30;;
49444;SDS011;35323;43.080;-81.378;2023-03-23T11:41:25;43.60;;;23.42;;
49444;SDS011;35323;43.080;-81.378;2023-03-23T11:43:54;60.20;;;26.77;;
49444;SDS011;35323;43.080;-81.378;2023-03-23T11:46:39;14.10;;;10.80;;
49444;SDS011;35323;43.080;-81.378;2023-03-23T11:49:41;40.15;;;19.88;;
49444;SDS011;35323;43.080;-81.378;2023-03-23T11:52:05;26.20;;;13.20;;
49444;SDS011;35323;43.080;-81.378;2023-03-23T11:54:44;41.78;;;21.90;;
49444;SDS011;35323;43.080;-81.378;2023-03-23T11:57:12;65.85;;;25.02;;
49444;SDS011;35323;43.080;-81.378;2023-03-23T11:59:39;33.25;;;19.90;;
49444;SDS011;35323;43.080;-81.378;2023-03-23T12:02:39;31.17;;;19.00;;
49444;SDS011;35323;43.080;-81.378;2023-03-23T12:13:22;30.65;;;16.10;;
49444;SDS011;35323;43.080;-81.378;2023-03-23T12:15:50;53.28;;;26.42;;
49444;SDS011;35323;43.080;-81.378;2023-03-23T12:18:21;17.70;;;11.30;;
49444;SDS011;35323;43.080;-81.378;2023-03-23T12:24:34;62.72;;;24.98;;
49444;SDS011;35323;43.080;-81.378;2023-03-23T12:26:37;41.78;;;22.58;;
49444;SDS011;35323;43.080;-81.378;2023-03-23T12:42:05;80.40;;;34.22;;
49444;SDS011;35323;43.080;-81.378;2023-03-23T12:49:50;56.60;;;25.52;;
49444;SDS011;35323;43.080;-81.378;2023-03-23T12:52:30;46.83;;;24.65;;
49444;SDS011;35323;43.080;-81.378;2023-03-23T13:02:21;19.67;;;11.35;;
49444;SDS011;35323;43.080;-81.378;2023-03-23T13:04:50;14.85;;;10.20;;
49444;SDS011;35323;43.080;-81.378;2023-03-23T13:07:19;17.00;;;8.05;;
49444;SDS011;35323;43.080;-81.378;2023-03-23T13:12:14;11.48;;;8.05;;
49444;SDS011;35323;43.080;-81.378;2023-03-23T13:17:36;8.75;;;5.53;;
49444;SDS011;35323;43.080;-81.378;2023-03-23T13:28:30;5.03;;;3.35;;
49444;SDS011;35323;43.080;-81.378;2023-03-23T13:33:28;3.03;;;2.25;;
49444;SDS011;35323;43.080;-81.378;2023-03-23T13:35:55;3.55;;;1.83;;
49444;SDS011;35323;43.080;-81.378;2023-03-23T13:40:48;1.63;;;1.42;;
49444;SDS011;35323;43.080;-81.378;2023-03-23T13:43:24;4.05;;;1.27;;
49444;SDS011;35323;43.080;-81.378;2023-03-23T13:45:51;2.97;;;2.78;;
49444;SDS011;35323;43.080;-81.378;2023-03-23T13:48:21;8.73;;;4.75;;
49444;SDS011;35323;43.080;-81.378;2023-03-23T13:50:58;6.68;;;5.50;;
49444;SDS011;35323;43.080;-81.378;2023-03-23T13:53:30;11.70;;;7.35;;
49444;SDS011;35323;43.080;-81.378;2023-03-23T13:56:21;15.05;;;7.45;;
49444;SDS011;35323;43.080;-81.378;2023-03-23T13:58:46;16.70;;;8.63;;
49444;SDS011;35323;43.080;-81.378;2023-03-23T14:01:14;13.40;;;8.02;;
49444;SDS011;35323;43.080;-81.378;2023-03-23T14:03:44;14.77;;;8.23;;
49444;SDS011;35323;43.080;-81.378;2023-03-23T14:06:19;16.10;;;9.10;;
49444;SDS011;35323;43.080;-81.378;2023-03-23T14:08:51;14.98;;;9.00;;
49444;SDS011;35323;43.080;-81.378;2023-03-23T14:11:26;13.23;;;8.23;;
49444;SDS011;35323;43.080;-81.378;2023-03-23T14:14:14;16.42;;;8.65;;
49444;SDS011;35323;43.080;-81.378;2023-03-23T14:16:44;13.43;;;8.02;;
49444;SDS011;35323;43.080;-81.378;2023-03-23T14:19:46;17.30;;;8.85;;
49444;SDS011;35323;43.080;-81.378;2023-03-23T14:22:03;13.20;;;9.93;;
49444;SDS011;35323;43.080;-81.378;2023-03-23T14:24:31;12.43;;;8.48;;
49444;SDS011;35323;43.080;-81.378;2023-03-23T14:29:42;18.60;;;11.23;;
49444;SDS011;35323;43.080;-81.378;2023-03-23T14:32:12;19.05;;;13.45;;
49444;SDS011;35323;43.080;-81.378;2023-03-23T14:34:39;22.00;;;11.98;;
49444;SDS011;35323;43.080;-81.378;2023-03-23T14:37:05;25.02;;;12.43;;
49444;SDS011;35323;43.080;-81.378;2023-03-23T14:39:36;26.45;;;13.45;;
49444;SDS011;35323;43.080;-81.378;2023-03-23T14:42:26;21.88;;;14.13;;
49444;SDS011;35323;43.080;-81.378;2023-03-23T14:44:51;20.63;;;13.63;;
49444;SDS011;35323;43.080;-81.378;2023-03-23T14:47:22;26.27;;;14.70;;
49444;SDS011;35323;43.080;-81.378;2023-03-23T14:49:53;24.90;;;15.07;;
49444;SDS011;35323;43.080;-81.378;2023-03-23T14:52:21;23.45;;;13.82;;
49444;SDS011;35323;43.080;-81.378;2023-03-23T14:54:47;24.30;;;14.05;;
49444;SDS011;35323;43.080;-81.378;2023-03-23T14:57:18;25.90;;;13.35;;
49444;SDS011;35323;43.080;-81.378;2023-03-23T14:59:45;19.55;;;12.70;;
49444;SDS011;35323;43.080;-81.378;2023-03-23T15:05:09;19.02;;;12.80;;
49444;SDS011;35323;43.080;-81.378;2023-03-23T15:07:36;22.90;;;14.32;;
49444;SDS011;35323;43.080;-81.378;2023-03-23T15:10:08;22.48;;;14.13;;
49444;SDS011;35323;43.080;-81.378;2023-03-23T15:12:37;23.55;;;12.63;;
49444;SDS011;35323;43.080;-81.378;2023-03-23T15:15:04;21.77;;;12.98;;
49444;SDS011;35323;43.080;-81.378;2023-03-23T15:17:32;21.35;;;13.25;;
49444;SDS011;35323;43.080;-81.378;2023-03-23T15:20:06;21.33;;;13.82;;
49444;SDS011;35323;43.080;-81.378;2023-03-23T15:22:32;19.63;;;13.85;;
49444;SDS011;35323;43.080;-81.378;2023-03-23T15:25:16;18.35;;;12.73;;
49444;SDS011;35323;43.080;-81.378;2023-03-23T15:27:44;14.73;;;10.18;;
49444;SDS011;35323;43.080;-81.378;2023-03-23T15:30:15;19.80;;;12.63;;
49444;SDS011;35323;43.080;-81.378;2023-03-23T15:32:44;20.98;;;11.15;;
49444;SDS011;35323;43.080;-81.378;2023-03-23T15:35:12;14.82;;;11.98;;
49444;SDS011;35323;43.080;-81.378;2023-03-23T15:38:22;20.90;;;13.13;;
49444;SDS011;35323;43.080;-81.378;2023-03-23T15:40:36;23.33;;;13.02;;
49444;SDS011;35323;43.080;-81.378;2023-03-23T15:43:19;16.42;;;11.13;;
49444;SDS011;35323;43.080;-81.378;2023-03-23T15:50:54;16.58;;;10.20;;
49444;SDS011;35323;43.080;-81.378;2023-03-23T15:53:26;18.90;;;9.52;;
49444;SDS011;35323;43.080;-81.378;2023-03-23T15:55:57;19.48;;;9.90;;
49444;SDS011;35323;43.080;-81.378;2023-03-23T15:58:23;14.30;;;9.60;;
49444;SDS011;35323;43.080;-81.378;2023-03-23T16:00:51;11.93;;;8.75;;
49444;SDS011;35323;43.080;-81.378;2023-03-23T16:03:21;12.63;;;9.20;;
49444;SDS011;35323;43.080;-81.378;2023-03-23T16:05:51;14.23;;;9.25;;
49444;SDS011;35323;43.080;-81.378;2023-03-23T16:08:19;15.30;;;8.65;;
49444;SDS011;35323;43.080;-81.378;2023-03-23T16:10:46;11.77;;;8.00;;
49444;SDS011;35323;43.080;-81.378;2023-03-23T16:13:14;11.93;;;7.03;;
49444;SDS011;35323;43.080;-81.378;2023-03-23T16:15:42;13.48;;;8.38;;
49444;SDS011;35323;43.080;-81.378;2023-03-23T16:18:13;13.13;;;6.72;;
49444;SDS011;35323;43.080;-81.378;2023-03-23T16:20:43;13.00;;;7.60;;
49444;SDS011;35323;43.080;-81.378;2023-03-23T16:23:11;16.08;;;11.27;;